createdAt,value
2022-09-26T00:00:46.406Z,60.50
2022-09-26T00:03:26.968Z,65.12
2022-09-26T00:05:59.439Z,65.36
2022-09-26T00:08:27.920Z,63.79
2022-09-26T00:10:57.567Z,62.57
2022-09-26T00:13:25.299Z,61.53
2022-09-26T00:15:53.224Z,61.21
2022-09-26T00:18:21.099Z,61.00
2022-09-26T00:20:48.792Z,60.48
2022-09-26T00:23:16.651Z,60.34
2022-09-26T00:25:45.851Z,59.91
2022-09-26T00:28:13.413Z,58.58
2022-09-26T00:30:41.724Z,60.15
2022-09-26T00:33:10.063Z,64.28
2022-09-26T00:35:37.619Z,65.08
2022-09-26T00:38:05.895Z,63.15
2022-09-26T00:40:34.266Z,61.73
2022-09-26T00:43:01.936Z,61.04
2022-09-26T00:45:30.853Z,60.46
2022-09-26T00:48:01.554Z,59.95
2022-09-26T00:50:31.180Z,60.06
2022-09-26T00:53:02.548Z,60.02
2022-09-26T00:55:34.372Z,59.89
2022-09-26T00:58:04.515Z,60.01
2022-09-26T01:00:32.661Z,59.93
2022-09-26T01:03:00.529Z,59.25
2022-09-26T01:05:28.620Z,60.48
2022-09-26T01:07:57.288Z,64.70
2022-09-26T01:10:27.812Z,64.79
2022-09-26T01:12:56.094Z,63.87
2022-09-26T01:15:24.063Z,63.25
2022-09-26T01:17:51.930Z,62.65
2022-09-26T01:20:25.140Z,62.03
2022-09-26T01:23:19.609Z,61.44
2022-09-26T01:25:46.443Z,61.15
2022-09-26T01:28:26.705Z,61.15
2022-09-26T01:30:58.039Z,60.84
2022-09-26T01:33:34.114Z,60.00
2022-09-26T01:36:16.413Z,58.91
2022-09-26T01:38:51.304Z,62.83
2022-09-26T01:41:26.192Z,66.17
2022-09-26T01:43:56.779Z,64.65
2022-09-26T01:46:29.384Z,61.51
2022-09-26T01:49:05.380Z,62.32
2022-09-26T01:51:35.969Z,62.83
2022-09-26T01:54:06.110Z,62.57
2022-09-26T01:56:37.029Z,62.33
2022-09-26T01:59:07.144Z,61.94
2022-09-26T02:01:37.973Z,61.22
2022-09-26T02:04:09.291Z,60.44
2022-09-26T02:06:38.010Z,59.90
2022-09-26T02:09:08.377Z,59.33
2022-09-26T02:11:37.272Z,59.17
2022-09-26T02:14:06.727Z,62.00
2022-09-26T02:16:37.657Z,66.86
2022-09-26T02:19:09.798Z,67.21
2022-09-26T02:21:38.214Z,65.02
2022-09-26T02:24:06.545Z,62.97
2022-09-26T02:26:34.458Z,61.72
2022-09-26T02:29:02.223Z,61.52
2022-09-26T02:31:32.673Z,61.07
2022-09-26T02:34:00.512Z,60.36
2022-09-26T02:47:25.929Z,58.98
2022-09-26T02:50:01.349Z,60.86
2022-09-26T02:52:35.956Z,65.73
2022-09-26T02:55:10.214Z,66.49
2022-09-26T02:57:44.397Z,65.32
2022-09-26T03:00:17.416Z,64.12
2022-09-26T03:02:50.116Z,63.17
2022-09-26T03:05:20.373Z,62.22
2022-09-26T03:07:50.914Z,61.39
2022-09-26T03:10:19.580Z,60.98
2022-09-26T03:12:47.865Z,60.85
2022-09-26T03:15:17.388Z,60.28
2022-09-26T03:17:47.585Z,58.83
2022-09-26T03:20:18.529Z,59.48
2022-09-26T03:22:46.343Z,64.35
2022-09-26T03:25:15.880Z,65.05
2022-09-26T03:27:51.131Z,63.43
2022-09-26T03:30:20.637Z,62.06
2022-09-26T03:33:02.850Z,61.61
2022-09-26T03:35:30.908Z,61.58
2022-09-26T03:38:01.133Z,61.11
2022-09-26T03:40:30.077Z,60.70
2022-09-26T03:43:23.703Z,60.09
2022-09-26T03:45:52.206Z,59.01
2022-09-26T03:48:23.314Z,57.90
2022-09-26T03:50:51.081Z,61.87
2022-09-26T03:53:19.452Z,66.32
2022-09-26T03:55:47.779Z,66.16
2022-09-26T03:58:15.404Z,63.71
2022-09-26T04:00:44.221Z,62.65
2022-09-26T04:03:12.148Z,62.08
2022-09-26T04:05:40.232Z,62.32
2022-09-26T04:08:08.883Z,61.86
2022-09-26T04:10:37.686Z,61.55
2022-09-26T04:13:06.203Z,61.02
2022-09-26T04:15:34.759Z,60.18
2022-09-26T04:18:12.857Z,59.74
2022-09-26T04:20:41.030Z,58.14
2022-09-26T04:23:08.907Z,58.96
2022-09-26T04:25:37.583Z,61.66
2022-09-26T04:28:05.517Z,66.04
2022-09-26T04:30:33.834Z,66.06
2022-09-26T04:33:02.716Z,63.71
2022-09-26T04:35:37.139Z,62.13
2022-09-26T04:38:08.494Z,61.32
2022-09-26T04:40:40.752Z,60.53
2022-09-26T04:43:11.694Z,60.16
2022-09-26T04:45:40.909Z,58.96
2022-09-26T04:48:09.774Z,58.20
2022-09-26T04:50:58.434Z,59.11
2022-09-26T04:53:26.092Z,65.65
2022-09-26T04:56:09.801Z,64.89
2022-09-26T04:58:37.803Z,63.11
2022-09-26T05:01:07.243Z,62.67
2022-09-26T05:03:51.695Z,61.23
2022-09-26T05:06:19.935Z,61.10
2022-09-26T05:08:48.623Z,60.72
2022-09-26T05:11:21.068Z,60.45
2022-09-26T05:13:53.557Z,59.80
2022-09-26T05:16:23.480Z,59.82
2022-09-26T05:18:52.068Z,58.85
2022-09-26T05:21:21.057Z,59.75
2022-09-26T05:24:07.857Z,61.90
2022-09-26T05:26:40.346Z,65.69
2022-09-26T05:29:09.398Z,66.45
2022-09-26T05:31:52.787Z,64.21
2022-09-26T05:34:22.237Z,62.87
2022-09-26T05:36:51.464Z,61.99
2022-09-26T05:39:41.653Z,61.23
2022-09-26T05:42:11.377Z,59.52
2022-09-26T05:44:39.642Z,58.75
2022-09-26T05:47:08.088Z,61.04
2022-09-26T05:49:37.518Z,65.65
2022-09-26T05:52:05.490Z,66.66
2022-09-26T05:54:33.375Z,64.25
2022-09-26T05:57:02.858Z,62.68
2022-09-26T05:59:50.868Z,62.00
2022-09-26T06:02:24.942Z,61.30
2022-09-26T06:05:25.470Z,61.07
2022-09-26T06:08:13.175Z,60.33
2022-09-26T06:10:46.964Z,59.71
2022-09-26T06:13:15.330Z,58.19
2022-09-26T06:15:54.786Z,59.66
2022-09-26T06:18:22.855Z,61.71
2022-09-26T06:20:50.840Z,65.99
2022-09-26T06:23:18.794Z,66.00
2022-09-26T06:25:49.715Z,64.27
2022-09-26T06:28:18.926Z,62.86
2022-09-26T06:30:46.694Z,60.76
2022-09-26T06:33:34.834Z,58.71
2022-09-26T06:36:17.442Z,59.93
2022-09-26T06:38:45.964Z,65.58
2022-09-26T06:41:17.789Z,66.11
2022-09-26T06:43:45.857Z,64.11
2022-09-26T06:46:42.344Z,62.75
2022-09-26T06:49:14.762Z,61.09
2022-09-26T06:51:48.475Z,60.84
2022-09-26T06:54:17.464Z,60.48
2022-09-26T06:56:45.432Z,59.32
2022-09-26T06:59:16.602Z,58.57
2022-09-26T07:01:51.511Z,60.63
2022-09-26T07:04:38.530Z,65.10
2022-09-26T07:07:18.280Z,64.16
2022-09-26T07:09:46.645Z,62.78
2022-09-26T07:12:37.099Z,60.24
2022-09-26T07:15:07.090Z,58.34
2022-09-26T07:17:34.917Z,60.47
2022-09-26T07:20:21.952Z,64.75
2022-09-26T07:23:05.772Z,64.90
2022-09-26T07:25:34.555Z,63.66
2022-09-26T07:28:03.033Z,62.37
2022-09-26T07:30:44.398Z,61.14
2022-09-26T07:33:35.540Z,60.44
2022-09-26T07:36:09.334Z,58.43
2022-09-26T07:38:37.413Z,59.14
2022-09-26T07:41:10.417Z,62.47
2022-09-26T07:44:41.211Z,64.61
2022-09-26T07:46:45.361Z,63.70
2022-09-26T07:49:31.609Z,61.10
2022-09-26T07:52:11.492Z,59.31
2022-09-26T07:54:58.134Z,58.92
2022-09-26T07:57:46.342Z,60.12
2022-09-26T08:00:25.891Z,65.57
2022-09-26T08:03:04.819Z,65.70
2022-09-26T08:05:34.610Z,63.52
2022-09-26T08:08:04.373Z,62.65
2022-09-26T08:10:51.444Z,61.85
2022-09-26T08:13:19.101Z,60.63
2022-09-26T08:16:23.168Z,59.91
2022-09-26T08:18:54.059Z,58.48
2022-09-26T08:21:22.339Z,59.18
2022-09-26T08:23:53.407Z,60.51
2022-09-26T08:40:39.571Z,59.35
2022-09-26T08:43:33.652Z,60.50
2022-09-26T08:46:44.594Z,65.12
2022-09-26T08:49:41.459Z,65.22
2022-09-26T08:52:21.105Z,62.96
2022-09-26T08:54:50.455Z,62.18
2022-09-26T08:57:22.466Z,61.32
2022-09-26T08:59:50.841Z,60.59
2022-09-26T09:02:25.314Z,60.23
2022-09-26T09:05:00.840Z,59.42
2022-09-26T09:07:28.875Z,58.50
2022-09-26T09:09:59.590Z,60.04
2022-09-26T09:12:58.938Z,64.65
2022-09-26T09:15:44.385Z,64.17
2022-09-26T09:18:30.076Z,62.36
2022-09-26T09:21:26.098Z,61.29
2022-09-26T09:24:18.748Z,61.04
2022-09-26T09:29:53.255Z,60.29
2022-09-26T09:32:53.213Z,59.92
2022-09-26T09:35:38.681Z,59.21
2022-09-26T09:38:27.952Z,62.70
2022-09-26T09:41:04.511Z,66.50
2022-09-26T09:43:36.073Z,65.25
2022-09-26T09:46:05.111Z,63.30
2022-09-26T09:48:33.200Z,62.74
2022-09-26T09:51:06.051Z,63.24
2022-09-26T09:53:45.095Z,63.56
2022-09-26T09:56:18.477Z,63.67
2022-09-26T09:58:56.770Z,63.18
2022-09-26T10:01:27.351Z,62.88
2022-09-26T10:04:02.961Z,61.20
2022-09-26T10:06:45.314Z,61.57
2022-09-26T10:09:39.608Z,62.93
2022-09-26T10:12:29.271Z,63.03
2022-09-26T10:15:19.379Z,62.29
2022-09-26T10:18:23.910Z,61.67
2022-09-26T10:21:20.350Z,59.95
2022-09-26T10:23:50.237Z,60.01
2022-09-26T10:26:44.056Z,60.48
2022-09-26T10:29:22.000Z,60.84
2022-09-26T10:31:55.571Z,61.33
2022-09-26T10:34:25.855Z,60.79
2022-09-26T10:36:55.361Z,59.69
2022-09-26T10:39:58.124Z,60.38
2022-09-26T10:42:31.423Z,64.00
2022-09-26T10:45:11.740Z,65.31
2022-09-26T10:47:58.809Z,62.60
2022-09-26T10:51:06.104Z,62.81
2022-09-26T10:53:45.410Z,61.55
2022-09-26T10:56:23.340Z,58.24
2022-09-26T10:58:56.868Z,62.22
2022-09-26T11:01:26.091Z,65.97
2022-09-26T11:03:56.186Z,64.53
2022-09-26T11:06:26.815Z,63.15
2022-09-26T11:09:02.022Z,62.67
2022-09-26T11:11:51.503Z,61.76
2022-09-26T11:14:28.088Z,61.51
2022-09-26T11:17:09.060Z,58.93
2022-09-26T11:19:44.079Z,60.19
2022-09-26T11:22:19.008Z,63.88
2022-09-26T11:24:51.085Z,64.67
2022-09-26T11:27:26.448Z,60.03
2022-09-26T11:29:58.771Z,58.83
2022-09-26T11:32:28.947Z,63.26
2022-09-26T11:35:01.774Z,63.71
2022-09-26T11:37:47.273Z,63.09
2022-09-26T11:40:24.784Z,63.60
2022-09-26T11:43:04.698Z,62.89
2022-09-26T11:45:45.215Z,61.73
2022-09-26T11:48:44.215Z,58.44
2022-09-26T11:51:52.019Z,61.34
2022-09-26T11:54:32.632Z,59.72
2022-09-26T12:11:41.562Z,65.32
2022-09-26T12:14:15.661Z,60.72
2022-09-26T12:16:47.927Z,59.51
2022-09-26T12:19:20.714Z,62.40
2022-09-26T12:22:11.721Z,60.38
2022-09-26T12:24:46.242Z,62.68
2022-09-26T12:27:17.279Z,62.62
2022-09-26T12:29:46.985Z,60.25
2022-09-26T12:32:20.475Z,59.15
2022-09-26T12:34:57.272Z,58.18
2022-09-26T12:37:42.741Z,61.55
2022-09-26T12:40:23.059Z,60.35
2022-09-26T12:43:13.704Z,63.00
2022-09-26T12:45:53.018Z,63.08
2022-09-26T12:48:35.842Z,60.30
2022-09-26T12:51:14.885Z,58.57
2022-09-26T12:53:47.463Z,59.01
2022-09-26T12:56:21.881Z,60.61
2022-09-26T12:58:57.423Z,62.96
2022-09-26T13:01:44.047Z,62.79
2022-09-26T13:04:21.939Z,59.39
2022-09-26T13:07:20.685Z,59.55
2022-09-26T13:09:57.894Z,58.28
2022-09-26T13:12:32.910Z,58.19
2022-09-26T13:15:09.456Z,60.29
2022-09-26T13:17:40.869Z,62.74
2022-09-26T13:20:14.894Z,64.29
2022-09-26T13:22:45.589Z,59.03
2022-09-26T13:25:17.527Z,56.35
2022-09-26T13:27:48.081Z,54.18
2022-09-26T13:30:17.958Z,53.19
2022-09-26T13:32:51.908Z,53.54
2022-09-26T13:35:21.429Z,54.66
2022-09-26T13:38:00.137Z,53.02
2022-09-26T13:40:34.630Z,52.27
2022-09-26T13:43:10.004Z,52.50
2022-09-26T13:45:46.036Z,54.27
2022-09-26T13:48:17.930Z,53.03
2022-09-26T13:50:49.081Z,51.34
2022-09-26T13:53:21.017Z,49.71
2022-09-26T14:10:35.686Z,47.30
2022-09-26T14:13:07.861Z,49.17
2022-09-26T14:15:50.082Z,48.54
2022-09-26T14:18:32.462Z,49.65
2022-09-26T14:21:05.130Z,51.79
2022-09-26T14:23:32.650Z,52.61
2022-09-26T14:26:05.844Z,53.30
2022-09-26T14:28:35.213Z,55.04
2022-09-26T14:31:23.458Z,56.34
2022-09-26T14:34:05.179Z,58.22
2022-09-26T14:36:34.791Z,59.69
2022-09-26T14:39:04.052Z,61.11
2022-09-26T14:41:33.651Z,62.97
2022-09-26T14:44:03.011Z,62.95
2022-09-26T14:46:33.119Z,58.47
2022-09-26T14:49:04.871Z,58.60
2022-09-26T14:51:36.549Z,60.14
2022-09-26T14:54:06.462Z,62.30
2022-09-26T14:56:44.486Z,64.22
2022-09-26T14:59:27.281Z,62.72
2022-09-26T15:02:11.869Z,57.30
2022-09-26T15:04:41.544Z,56.64
2022-09-26T15:07:14.619Z,58.25
2022-09-26T15:09:44.008Z,58.75
2022-09-26T15:12:15.286Z,59.51
2022-09-26T15:14:45.393Z,60.87
2022-09-26T15:17:16.444Z,63.42
2022-09-26T15:19:48.763Z,62.97
2022-09-26T15:22:18.215Z,59.58
2022-09-26T15:24:46.173Z,57.86
2022-09-26T15:27:18.402Z,58.55
2022-09-26T15:29:47.638Z,60.55
2022-09-26T15:32:21.361Z,63.90
2022-09-26T15:34:50.561Z,64.26
2022-09-26T15:37:20.162Z,61.48
2022-09-26T15:39:47.919Z,58.00
2022-09-26T15:42:43.275Z,57.00
2022-09-26T15:45:16.841Z,58.33
2022-09-26T15:47:44.899Z,60.95
2022-09-26T15:50:13.837Z,64.82
2022-09-26T15:52:47.044Z,65.00
2022-09-26T15:55:18.073Z,62.32
2022-09-26T15:57:48.691Z,58.93
2022-09-26T16:00:17.647Z,58.42
2022-09-26T16:02:46.284Z,59.82
2022-09-26T16:05:14.513Z,60.94
2022-09-26T16:07:47.041Z,65.08
2022-09-26T16:10:21.806Z,64.79
2022-09-26T16:12:49.932Z,61.30
2022-09-26T16:15:18.415Z,58.26
2022-09-26T16:17:51.252Z,58.12
2022-09-26T16:20:18.341Z,59.95
2022-09-26T16:22:48.459Z,61.31
2022-09-26T16:25:32.209Z,64.37
2022-09-26T16:28:03.107Z,65.78
2022-09-26T16:30:41.865Z,63.19
2022-09-26T16:33:30.254Z,61.67
2022-09-26T16:36:04.121Z,61.39
2022-09-26T16:38:33.278Z,60.36
2022-09-26T16:41:07.725Z,59.19
2022-09-26T16:43:37.088Z,59.87
2022-09-26T16:46:08.730Z,62.27
2022-09-26T16:48:38.264Z,66.88
2022-09-26T16:51:13.770Z,66.47
2022-09-26T17:09:13.517Z,59.78
2022-09-26T17:11:41.786Z,62.38
2022-09-26T17:14:10.972Z,65.94
2022-09-26T17:16:38.942Z,65.23
2022-09-26T17:19:08.456Z,63.79
2022-09-26T17:21:36.320Z,62.80
2022-09-26T17:24:05.181Z,62.11
2022-09-26T17:26:34.455Z,61.55
2022-09-26T17:29:03.811Z,60.83
2022-09-26T17:31:34.246Z,60.82
2022-09-26T17:34:03.638Z,60.44
2022-09-26T17:36:31.611Z,60.69
2022-09-26T17:39:02.078Z,60.67
2022-09-26T17:41:32.512Z,60.33
2022-09-26T17:44:01.562Z,60.11
2022-09-26T17:46:29.735Z,59.96
2022-09-26T17:48:58.928Z,58.76
2022-09-26T17:51:26.754Z,58.81
2022-09-26T17:53:56.946Z,61.21
2022-09-26T17:56:25.808Z,66.46
2022-09-26T17:58:55.215Z,66.50
2022-09-26T18:01:24.943Z,64.22
2022-09-26T18:03:54.590Z,62.65
2022-09-26T18:06:24.706Z,62.04
2022-09-26T18:27:24.521Z,59.82
2022-09-26T18:29:52.502Z,62.83
2022-09-26T18:32:23.249Z,65.39
2022-09-26T18:34:51.516Z,64.75
2022-09-26T18:37:19.183Z,64.07
2022-09-26T18:39:52.141Z,63.14
2022-09-26T18:42:24.051Z,62.24
2022-09-26T18:44:55.706Z,61.77
2022-09-26T18:47:23.906Z,61.98
2022-09-26T18:49:52.534Z,61.90
2022-09-26T18:52:20.444Z,61.74
2022-09-26T18:55:09.148Z,61.51
2022-09-26T18:57:55.290Z,61.07
2022-09-26T19:00:23.533Z,60.82
2022-09-26T19:02:51.797Z,60.83
2022-09-26T19:05:20.018Z,60.58
2022-09-26T19:07:48.406Z,60.36
2022-09-26T19:10:17.251Z,60.02
2022-09-26T19:12:45.047Z,59.72
2022-09-26T19:15:14.508Z,58.60
2022-09-26T19:17:42.887Z,59.81
2022-09-26T19:20:10.663Z,64.31
2022-09-26T19:22:39.340Z,64.69
2022-09-26T19:25:09.771Z,62.57
2022-09-26T19:27:41.012Z,61.74
2022-09-26T19:30:11.996Z,61.47
2022-09-26T19:32:40.733Z,61.09
2022-09-26T19:35:15.406Z,60.99
2022-09-26T19:37:43.647Z,60.83
2022-09-26T19:40:13.558Z,61.31
2022-09-26T19:42:41.988Z,61.10
2022-09-26T19:45:11.125Z,60.92
2022-09-26T19:47:41.050Z,61.40
2022-09-26T19:50:13.452Z,60.93
2022-09-26T19:52:42.545Z,60.57
2022-09-26T19:55:14.007Z,60.63
2022-09-26T19:57:42.233Z,60.48
2022-09-26T20:00:12.095Z,60.27
2022-09-26T20:02:40.085Z,60.66
2022-09-26T20:05:15.529Z,60.86
2022-09-26T20:07:44.208Z,60.36
2022-09-26T20:10:18.658Z,60.28
2022-09-26T20:12:47.887Z,60.55
2022-09-26T20:15:16.440Z,60.70
2022-09-26T20:17:45.323Z,60.74
2022-09-26T20:20:15.136Z,61.12
2022-09-26T20:22:43.519Z,61.65
2022-09-26T20:25:15.065Z,61.14
2022-09-26T20:27:43.342Z,61.31
2022-09-26T20:30:31.767Z,60.93
2022-09-26T20:33:00.589Z,59.94
2022-09-26T20:35:33.169Z,60.51
2022-09-26T20:38:05.382Z,65.33
2022-09-26T20:40:33.827Z,66.29
2022-09-26T20:43:03.567Z,65.95
2022-09-26T20:45:34.203Z,65.46
2022-09-26T20:48:02.388Z,64.55
2022-09-26T20:50:33.985Z,64.00
2022-09-26T20:53:03.163Z,63.31
2022-09-26T20:55:32.567Z,62.96
2022-09-26T20:58:01.045Z,62.39
2022-09-26T21:00:29.842Z,62.73
2022-09-26T21:02:57.669Z,62.33
2022-09-26T21:05:26.901Z,61.61
2022-09-26T21:07:56.060Z,61.34
2022-09-26T21:10:25.146Z,60.78
2022-09-26T21:12:53.052Z,61.28
2022-09-26T21:15:22.251Z,61.17
2022-09-26T21:17:51.145Z,60.35
2022-09-26T21:20:21.974Z,60.78
2022-09-26T21:22:59.654Z,61.85
2022-09-26T21:25:28.517Z,62.39
2022-09-26T21:27:57.657Z,61.91
2022-09-26T21:30:25.901Z,61.95
2022-09-26T21:32:55.570Z,61.56
2022-09-26T21:35:24.849Z,61.04
2022-09-26T21:37:53.313Z,61.25
2022-09-26T21:40:22.656Z,61.34
2022-09-26T21:42:52.235Z,61.52
2022-09-26T21:45:27.131Z,61.22
2022-09-26T21:47:55.532Z,60.75
2022-09-26T21:50:25.451Z,60.48
2022-09-26T21:52:56.085Z,60.55
2022-09-26T21:55:29.431Z,60.42
2022-09-26T21:57:59.539Z,60.37
2022-09-26T22:00:27.852Z,60.25
2022-09-26T22:02:58.319Z,59.78
2022-09-26T22:05:26.299Z,59.98
2022-09-26T22:07:55.891Z,60.05
2022-09-26T22:10:24.306Z,59.78
2022-09-26T22:12:52.506Z,59.65
2022-09-26T22:15:21.317Z,59.83
2022-09-26T22:17:49.288Z,60.24
2022-09-26T22:20:17.154Z,61.65
2022-09-26T22:22:45.239Z,61.59
2022-09-26T22:25:13.135Z,61.40
2022-09-26T22:27:41.472Z,61.73
2022-09-26T22:30:10.694Z,61.07
2022-09-26T22:32:38.645Z,60.84
2022-09-26T22:35:07.729Z,61.42
2022-09-26T22:37:35.702Z,61.65
2022-09-26T22:40:04.182Z,61.14
2022-09-26T22:42:32.785Z,60.79
2022-09-26T22:45:00.582Z,60.44
2022-09-26T22:47:28.691Z,59.68
2022-09-26T22:49:56.662Z,59.79
2022-09-26T22:52:24.634Z,61.92
2022-09-26T22:54:52.569Z,65.84
2022-09-26T22:57:20.677Z,66.52
2022-09-26T22:59:48.745Z,65.85
2022-09-26T23:02:16.733Z,64.62
2022-09-26T23:04:47.059Z,63.85
2022-09-26T23:07:15.822Z,62.59
2022-09-26T23:09:43.869Z,62.05
2022-09-26T23:12:12.083Z,62.12
2022-09-26T23:14:39.967Z,62.62
2022-09-26T23:17:08.710Z,62.76
2022-09-26T23:19:36.884Z,61.78
2022-09-26T23:22:05.466Z,61.32
2022-09-26T23:24:33.642Z,61.57
2022-09-26T23:27:01.793Z,61.22
2022-09-26T23:29:29.574Z,61.73
2022-09-26T23:31:57.960Z,61.18
2022-09-26T23:34:25.783Z,60.90
2022-09-26T23:36:53.493Z,61.41
2022-09-26T23:39:21.556Z,61.95
2022-09-26T23:41:49.429Z,61.90
2022-09-26T23:44:17.286Z,62.04
2022-09-26T23:46:45.056Z,61.80
2022-09-26T23:49:12.943Z,62.00
2022-09-26T23:51:41.089Z,62.64
2022-09-26T23:54:09.258Z,62.32
2022-09-26T23:56:37.340Z,62.41
2022-09-26T23:59:05.457Z,62.30
